createdAt,value
2018-04-23T00:00:12.364Z,99.90
2018-04-23T00:02:39.774Z,99.90
2018-04-23T00:05:08.007Z,99.90
2018-04-23T00:07:37.107Z,99.90
2018-04-23T00:10:04.544Z,99.90
2018-04-23T00:12:31.975Z,99.90
2018-04-23T00:14:59.450Z,99.90
2018-04-23T00:17:26.923Z,99.90
2018-04-23T00:19:54.380Z,99.90
2018-04-23T00:22:21.857Z,99.90
2018-04-23T00:24:49.316Z,99.90
2018-04-23T00:27:16.802Z,99.90
2018-04-23T00:29:44.228Z,99.90
2018-04-23T00:32:12.439Z,99.90
2018-04-23T00:34:40.602Z,99.90
2018-04-23T00:37:08.810Z,99.90
2018-04-23T00:39:37.958Z,99.90
2018-04-23T00:42:05.436Z,99.90
2018-04-23T00:44:32.865Z,99.90
2018-04-23T00:47:00.381Z,99.90
2018-04-23T00:49:27.836Z,99.90
2018-04-23T00:51:55.332Z,99.90
2018-04-23T00:54:22.791Z,99.90
2018-04-23T00:56:50.373Z,99.90
2018-04-23T00:59:19.312Z,99.90
2018-04-23T01:01:46.758Z,99.90
2018-04-23T01:04:14.177Z,99.90
2018-04-23T01:06:41.648Z,99.90
2018-04-23T01:09:09.112Z,99.90
2018-04-23T01:11:36.667Z,99.90
2018-04-23T01:14:04.156Z,99.90
2018-04-23T01:16:31.615Z,99.90
2018-04-23T01:18:59.034Z,99.90
2018-04-23T01:21:27.208Z,99.90
2018-04-23T01:23:54.644Z,99.90
2018-04-23T01:26:23.101Z,99.90
2018-04-23T01:28:51.328Z,99.90
2018-04-23T01:31:18.751Z,99.90
2018-04-23T01:33:46.188Z,99.90
2018-04-23T01:36:13.629Z,99.90
2018-04-23T01:38:41.210Z,99.90
2018-04-23T01:41:09.568Z,99.90
2018-04-23T01:43:37.068Z,99.90
2018-04-23T01:46:04.484Z,99.90
2018-04-23T01:48:32.004Z,99.90
2018-04-23T01:50:59.425Z,99.90
2018-04-23T01:53:26.854Z,99.90
2018-04-23T01:55:54.379Z,99.90
2018-04-23T01:58:22.652Z,99.90
2018-04-23T02:00:50.069Z,99.90
2018-04-23T02:03:17.535Z,99.90
2018-04-23T02:05:44.980Z,99.90
2018-04-23T02:08:12.457Z,99.90
2018-04-23T02:10:39.941Z,99.90
2018-04-23T02:13:07.448Z,99.90
2018-04-23T02:15:34.881Z,99.90
2018-04-23T02:18:02.339Z,99.90
2018-04-23T02:20:29.789Z,99.90
2018-04-23T02:22:57.335Z,99.90
2018-04-23T02:25:24.887Z,99.90
2018-04-23T02:27:52.321Z,99.90
2018-04-23T02:30:19.822Z,99.90
2018-04-23T02:32:47.237Z,99.90
2018-04-23T02:35:14.777Z,99.90
2018-04-23T02:37:42.341Z,99.90
2018-04-23T02:40:10.568Z,99.90
2018-04-23T02:42:37.993Z,99.90
2018-04-23T02:45:05.472Z,99.90
2018-04-23T02:47:33.010Z,99.90
2018-04-23T02:50:00.465Z,99.90
2018-04-23T02:52:27.965Z,99.90
2018-04-23T02:54:55.454Z,99.90
2018-04-23T02:57:22.891Z,99.90
2018-04-23T02:59:50.321Z,99.90
2018-04-23T03:02:18.570Z,99.90
2018-04-23T03:04:45.961Z,99.90
2018-04-23T03:07:13.491Z,99.90
2018-04-23T03:09:40.976Z,99.90
2018-04-23T03:12:08.417Z,99.90
2018-04-23T03:14:35.852Z,99.90
2018-04-23T03:17:04.119Z,99.90
2018-04-23T03:19:31.663Z,99.90
2018-04-23T03:21:59.119Z,99.90
2018-04-23T03:24:26.687Z,99.90
2018-04-23T03:26:54.142Z,99.90
2018-04-23T03:29:22.340Z,99.90
2018-04-23T03:31:49.778Z,99.90
2018-04-23T03:34:17.975Z,99.90
2018-04-23T03:36:46.159Z,99.90
2018-04-23T03:39:14.346Z,99.90
2018-04-23T03:41:42.588Z,99.90
2018-04-23T03:44:11.717Z,99.90
2018-04-23T03:46:40.892Z,99.90
2018-04-23T03:49:08.380Z,99.90
2018-04-23T03:51:35.838Z,99.90
2018-04-23T03:54:03.409Z,99.90
2018-04-23T03:56:30.843Z,99.90
2018-04-23T03:58:59.083Z,99.90
2018-04-23T04:01:26.562Z,99.90
2018-04-23T04:03:54.113Z,99.90
2018-04-23T04:06:21.556Z,99.90
2018-04-23T04:08:49.029Z,99.90
2018-04-23T04:11:16.487Z,99.90
2018-04-23T04:13:55.841Z,99.90
2018-04-23T04:16:35.375Z,99.90
2018-04-23T04:19:02.803Z,99.90
2018-04-23T04:21:30.226Z,99.90
2018-04-23T04:23:57.680Z,99.90
2018-04-23T04:26:25.096Z,99.90
2018-04-23T04:28:52.529Z,99.90
2018-04-23T04:31:19.966Z,99.90
2018-04-23T04:33:48.160Z,99.90
2018-04-23T04:36:16.377Z,99.90
2018-04-23T04:38:43.849Z,99.90
2018-04-23T04:41:12.188Z,99.90
2018-04-23T04:43:39.600Z,99.90
2018-04-23T04:46:07.083Z,99.90
2018-04-23T04:48:34.536Z,99.90
2018-04-23T04:51:02.006Z,99.90
2018-04-23T04:53:29.413Z,99.90
2018-04-23T04:55:56.861Z,99.90
2018-04-23T04:58:24.268Z,99.90
2018-04-23T05:00:51.705Z,99.90
2018-04-23T05:03:19.183Z,99.90
2018-04-23T05:05:46.610Z,99.90
2018-04-23T05:08:14.076Z,99.90
2018-04-23T05:10:43.211Z,99.90
2018-04-23T05:13:10.628Z,99.90
2018-04-23T05:15:38.061Z,99.90
2018-04-23T05:18:05.480Z,99.90
2018-04-23T05:20:32.976Z,99.90
2018-04-23T05:23:00.420Z,99.90
2018-04-23T05:25:27.922Z,99.90
2018-04-23T05:27:55.424Z,99.90
2018-04-23T05:30:22.849Z,99.90
2018-04-23T05:32:50.279Z,99.90
2018-04-23T05:35:18.482Z,99.90
2018-04-23T05:37:46.663Z,99.90
2018-04-23T05:40:14.089Z,99.90
2018-04-23T05:42:41.517Z,99.90
2018-04-23T05:45:08.951Z,99.90
2018-04-23T05:47:36.393Z,99.90
2018-04-23T05:50:03.836Z,99.90
2018-04-23T05:52:32.010Z,99.90
2018-04-23T05:54:59.463Z,99.90
2018-04-23T05:57:27.653Z,99.90
2018-04-23T05:59:55.073Z,99.90
2018-04-23T06:02:22.508Z,99.90
2018-04-23T06:04:49.943Z,99.90
2018-04-23T06:07:18.140Z,99.90
2018-04-23T06:09:46.409Z,99.90
2018-04-23T06:12:13.924Z,99.90
2018-04-23T06:14:41.340Z,99.90
2018-04-23T06:17:08.758Z,99.90
2018-04-23T06:19:36.193Z,99.90
2018-04-23T06:22:04.381Z,99.90
2018-04-23T06:24:32.598Z,99.90
2018-04-23T06:27:00.008Z,99.90
2018-04-23T06:29:27.429Z,99.90
2018-04-23T06:31:54.859Z,99.90
2018-04-23T06:34:22.378Z,99.90
2018-04-23T06:36:50.663Z,99.90
2018-04-23T06:39:18.108Z,99.90
2018-04-23T06:41:45.516Z,99.90
2018-04-23T06:44:13.047Z,99.90
2018-04-23T06:46:41.255Z,99.90
2018-04-23T06:49:09.432Z,99.90
2018-04-23T06:51:37.619Z,99.90
2018-04-23T06:54:05.833Z,99.90
2018-04-23T06:56:33.298Z,99.90
2018-04-23T06:59:00.753Z,99.90
2018-04-23T07:01:28.137Z,99.90
2018-04-23T07:03:55.609Z,99.90
2018-04-23T07:06:23.057Z,99.90
2018-04-23T07:08:51.241Z,99.90
2018-04-23T07:11:18.819Z,99.90
2018-04-23T07:13:46.272Z,99.90
2018-04-23T07:16:15.374Z,99.90
2018-04-23T07:18:43.594Z,99.90
2018-04-23T07:21:11.152Z,99.90
2018-04-23T07:23:39.320Z,99.90
2018-04-23T07:26:07.500Z,99.90
2018-04-23T07:28:35.695Z,99.90
2018-04-23T07:31:03.188Z,99.90
2018-04-23T07:33:30.607Z,99.90
2018-04-23T07:35:58.902Z,99.90
2018-04-23T07:38:26.302Z,99.90
2018-04-23T07:40:53.720Z,99.90
2018-04-23T07:43:21.213Z,99.90
2018-04-23T07:45:49.416Z,99.90
2018-04-23T07:48:16.830Z,99.90
2018-04-23T07:50:44.253Z,99.90
2018-04-23T07:53:11.678Z,99.90
2018-04-23T07:55:39.205Z,99.90
2018-04-23T07:58:06.620Z,99.90
2018-04-23T08:00:34.049Z,99.90
2018-04-23T08:03:01.490Z,99.90
2018-04-23T08:05:29.703Z,99.90
2018-04-23T08:07:57.129Z,99.90
2018-04-23T08:10:25.319Z,99.90
2018-04-23T08:12:52.745Z,99.90
2018-04-23T08:15:20.297Z,99.90
2018-04-23T08:17:47.700Z,99.90
2018-04-23T08:20:16.245Z,99.90
2018-04-23T08:22:43.663Z,99.90
2018-04-23T08:25:11.079Z,99.90
2018-04-23T08:27:38.503Z,99.90
2018-04-23T08:30:07.273Z,99.90
2018-04-23T08:32:34.705Z,99.90
2018-04-23T08:35:02.154Z,99.90
2018-04-23T08:37:29.572Z,99.90
2018-04-23T08:39:56.967Z,99.90
2018-04-23T08:42:24.392Z,99.90
2018-04-23T08:44:51.849Z,99.90
2018-04-23T08:47:20.662Z,99.90
2018-04-23T08:49:46.763Z,99.90
2018-04-23T08:52:14.987Z,99.90
2018-04-23T08:54:42.403Z,99.90
2018-04-23T08:57:10.627Z,99.90
2018-04-23T08:59:38.110Z,99.90
2018-04-23T09:02:05.591Z,99.90
2018-04-23T09:04:33.025Z,99.90
2018-04-23T09:07:01.200Z,99.90
2018-04-23T09:09:29.420Z,99.90
2018-04-23T09:11:56.816Z,99.90
2018-04-23T09:14:24.239Z,99.90
2018-04-23T09:16:52.413Z,99.90
2018-04-23T09:19:20.726Z,99.90
2018-04-23T09:21:48.899Z,99.90
2018-04-23T09:24:17.314Z,99.90
2018-04-23T09:26:44.805Z,99.90
2018-04-23T09:29:12.241Z,99.90
2018-04-23T09:31:39.733Z,99.90
2018-04-23T09:34:07.894Z,99.90
2018-04-23T09:36:35.475Z,99.90
2018-04-23T09:39:02.936Z,99.90
2018-04-23T09:41:31.119Z,99.90
2018-04-23T09:43:59.279Z,99.90
2018-04-23T09:46:27.601Z,99.90
2018-04-23T09:48:55.020Z,99.90
2018-04-23T09:51:22.441Z,99.90
2018-04-23T09:53:49.886Z,99.90
2018-04-23T09:56:18.675Z,99.90
2018-04-23T09:58:47.786Z,99.90
2018-04-23T10:01:21.420Z,99.90
2018-04-23T10:03:50.752Z,99.90
2018-04-23T10:06:18.937Z,99.90
2018-04-23T10:08:46.374Z,99.90
2018-04-23T10:11:14.547Z,99.90
2018-04-23T10:13:42.722Z,99.90
2018-04-23T10:16:10.165Z,99.90
2018-04-23T10:18:37.600Z,99.90
2018-04-23T10:21:05.074Z,99.90
2018-04-23T10:23:33.216Z,99.90
2018-04-23T10:26:01.392Z,99.90
2018-04-23T10:28:28.813Z,99.90
2018-04-23T10:30:56.242Z,99.90
2018-04-23T10:33:24.421Z,99.90
2018-04-23T10:35:51.830Z,99.90
2018-04-23T10:38:19.296Z,99.90
2018-04-23T10:40:46.767Z,99.90
2018-04-23T10:43:14.235Z,99.90
2018-04-23T10:45:42.423Z,99.90
2018-04-23T10:48:13.473Z,99.90
2018-04-23T10:50:40.897Z,99.90
2018-04-23T10:53:08.416Z,99.90
2018-04-23T10:55:36.604Z,99.90
2018-04-23T10:58:04.018Z,99.90
2018-04-23T11:00:31.415Z,99.90
2018-04-23T11:02:58.904Z,99.90
2018-04-23T11:05:26.327Z,99.90
2018-04-23T11:07:53.798Z,99.90
2018-04-23T11:10:21.241Z,99.90
2018-04-23T11:12:49.985Z,99.90
2018-04-23T11:15:19.079Z,99.90
2018-04-23T11:17:46.509Z,99.90
2018-04-23T11:20:13.916Z,99.90
2018-04-23T11:22:42.097Z,99.90
2018-04-23T11:25:09.521Z,99.90
2018-04-23T11:27:37.614Z,99.90
2018-04-23T11:30:05.051Z,99.90
2018-04-23T11:32:32.641Z,99.90
2018-04-23T11:35:00.915Z,99.90
2018-04-23T11:37:28.384Z,99.90
2018-04-23T11:39:55.855Z,99.90
2018-04-23T11:42:24.018Z,99.90
2018-04-23T11:44:52.216Z,99.90
2018-04-23T11:47:20.627Z,99.90
2018-04-23T11:49:48.033Z,99.90
2018-04-23T11:52:15.452Z,99.90
2018-04-23T11:54:42.884Z,99.90
2018-04-23T11:57:10.289Z,99.90
2018-04-23T11:59:37.706Z,99.90
2018-04-23T12:02:05.888Z,99.90
2018-04-23T12:04:33.349Z,99.90
2018-04-23T12:07:00.727Z,99.90
2018-04-23T12:09:28.132Z,99.90
2018-04-23T12:11:55.556Z,99.90
2018-04-23T12:14:23.073Z,99.90
2018-04-23T12:16:50.494Z,99.90
2018-04-23T12:19:17.926Z,99.90
2018-04-23T12:21:46.106Z,99.90
2018-04-23T12:24:13.577Z,99.90
2018-04-23T12:26:41.762Z,99.90
2018-04-23T12:29:09.172Z,99.90
2018-04-23T12:31:36.666Z,99.90
2018-04-23T12:34:04.183Z,98.40
2018-04-23T12:36:31.596Z,97.40
2018-04-23T12:38:59.018Z,96.90
2018-04-23T12:41:26.480Z,95.00
2018-04-23T12:43:54.637Z,90.20
2018-04-23T12:46:22.857Z,86.30
2018-04-23T12:48:51.613Z,82.70
2018-04-23T12:51:19.030Z,82.70
2018-04-23T12:53:46.444Z,79.20
2018-04-23T12:56:13.868Z,78.30
2018-04-23T12:58:41.290Z,79.40
2018-04-23T13:01:09.485Z,77.30
2018-04-23T13:03:37.674Z,75.90
2018-04-23T13:06:05.848Z,72.40
2018-04-23T13:08:34.041Z,69.80
2018-04-23T13:11:02.352Z,70.10
2018-04-23T13:13:29.820Z,70.10
2018-04-23T13:15:57.226Z,69.90
2018-04-23T13:18:24.669Z,71.60
2018-04-23T13:20:52.261Z,70.80
2018-04-23T13:23:19.729Z,71.10
2018-04-23T13:25:47.164Z,71.50
2018-04-23T13:28:14.585Z,70.20
2018-04-23T13:30:42.081Z,71.10
2018-04-23T13:33:10.264Z,68.90
2018-04-23T13:35:38.457Z,66.40
2018-04-23T13:38:06.621Z,64.10
2018-04-23T13:40:34.054Z,64.00
2018-04-23T13:43:01.465Z,63.00
2018-04-23T13:45:28.959Z,61.10
2018-04-23T13:47:56.387Z,61.00
2018-04-23T13:50:23.810Z,60.90
2018-04-23T13:52:52.802Z,60.60
2018-04-23T13:55:20.212Z,59.80
2018-04-23T13:57:47.647Z,59.90
2018-04-23T14:00:15.216Z,59.10
2018-04-23T14:02:43.402Z,59.60
2018-04-23T14:05:11.592Z,60.80
2018-04-23T14:07:39.056Z,60.70
2018-04-23T14:10:07.256Z,59.70
2018-04-23T14:12:34.669Z,59.70
2018-04-23T14:15:02.091Z,60.70
2018-04-23T14:17:29.509Z,60.70
2018-04-23T14:19:57.013Z,59.80
2018-04-23T14:22:25.160Z,59.30
2018-04-23T14:24:52.613Z,59.30
2018-04-23T14:27:20.056Z,59.90
2018-04-23T14:29:47.459Z,60.80
2018-04-23T14:32:14.874Z,61.20
2018-04-23T14:34:42.289Z,60.60
2018-04-23T14:37:09.734Z,59.70
2018-04-23T14:39:38.205Z,57.90
2018-04-23T14:42:05.628Z,56.90
2018-04-23T14:44:33.285Z,56.40
2018-04-23T14:47:00.727Z,56.30
2018-04-23T14:49:28.963Z,55.60
2018-04-23T14:51:57.148Z,54.30
2018-04-23T14:54:24.664Z,54.30
2018-04-23T14:56:53.016Z,53.40
2018-04-23T14:59:21.217Z,57.40
2018-04-23T15:01:49.385Z,59.80
2018-04-23T15:04:16.796Z,59.80
2018-04-23T15:06:44.212Z,57.90
2018-04-23T15:09:11.625Z,55.80
2018-04-23T15:11:39.049Z,54.00
2018-04-23T15:14:06.448Z,55.20
2018-04-23T15:16:33.870Z,56.80
2018-04-23T15:19:01.308Z,58.50
2018-04-23T15:21:28.723Z,59.40
2018-04-23T15:23:56.909Z,60.00
2018-04-23T15:26:24.340Z,60.00
2018-04-23T15:28:51.752Z,60.70
2018-04-23T15:31:19.943Z,59.90
2018-04-23T15:33:48.120Z,61.40
2018-04-23T15:36:16.326Z,63.30
2018-04-23T15:38:44.514Z,61.40
2018-04-23T15:41:12.220Z,61.40
2018-04-23T15:43:39.673Z,63.00
2018-04-23T15:46:07.114Z,60.90
2018-04-23T15:48:35.279Z,59.30
2018-04-23T15:51:02.754Z,59.30
2018-04-23T15:53:30.251Z,60.50
2018-04-23T15:55:57.661Z,61.40
2018-04-23T15:58:25.129Z,62.00
2018-04-23T16:00:52.566Z,62.50
2018-04-23T16:03:20.775Z,64.40
2018-04-23T16:05:48.209Z,64.40
2018-04-23T16:08:16.381Z,65.90
2018-04-23T16:10:44.593Z,66.60
2018-04-23T16:13:12.744Z,67.30
2018-04-23T16:15:40.161Z,67.20
2018-04-23T16:18:07.581Z,68.00
2018-04-23T16:20:35.007Z,68.90
2018-04-23T16:23:03.472Z,70.10
2018-04-23T16:25:30.882Z,70.80
2018-04-23T16:27:58.320Z,71.00
2018-04-23T16:30:25.711Z,71.90
2018-04-23T16:32:53.153Z,72.60
2018-04-23T16:35:21.328Z,73.50
2018-04-23T16:37:48.803Z,73.40
2018-04-23T16:40:16.215Z,73.50
2018-04-23T16:42:43.641Z,72.30
2018-04-23T16:45:11.051Z,72.30
2018-04-23T16:47:38.621Z,72.80
2018-04-23T16:50:06.041Z,73.40
2018-04-23T16:52:33.449Z,73.50
2018-04-23T16:55:00.860Z,73.80
2018-04-23T16:57:29.057Z,74.50
2018-04-23T16:59:56.480Z,74.50
2018-04-23T17:02:24.924Z,75.30
2018-04-23T17:04:52.332Z,75.20
2018-04-23T17:07:19.762Z,75.60
2018-04-23T17:09:47.201Z,76.10
2018-04-23T17:12:14.607Z,76.50
2018-04-23T17:14:42.058Z,77.50
2018-04-23T17:17:09.476Z,77.30
2018-04-23T17:19:36.901Z,77.90
2018-04-23T17:22:04.320Z,77.70
2018-04-23T17:24:31.829Z,78.30
2018-04-23T17:26:59.259Z,78.80
2018-04-23T17:29:26.886Z,79.60
2018-04-23T17:31:55.972Z,80.90
2018-04-23T17:34:23.389Z,80.90
2018-04-23T17:36:50.789Z,81.20
2018-04-23T17:39:18.980Z,81.90
2018-04-23T17:41:47.218Z,83.40
2018-04-23T17:44:15.347Z,83.20
2018-04-23T17:46:42.756Z,83.20
2018-04-23T17:49:10.215Z,84.30
2018-04-23T17:51:37.632Z,84.60
2018-04-23T17:54:05.162Z,85.60
2018-04-23T17:56:32.641Z,86.60
2018-04-23T17:59:00.066Z,87.50
2018-04-23T18:01:28.244Z,89.50
2018-04-23T18:03:56.464Z,90.40
2018-04-23T18:06:25.553Z,90.70
2018-04-23T18:08:53.760Z,90.80
2018-04-23T18:11:21.171Z,90.80
2018-04-23T18:13:48.609Z,91.20
2018-04-23T18:16:16.290Z,91.80
2018-04-23T18:18:43.848Z,92.30
2018-04-23T18:21:12.031Z,93.40
2018-04-23T18:23:40.203Z,93.90
2018-04-23T18:26:07.629Z,93.90
2018-04-23T18:28:35.055Z,94.40
2018-04-23T18:31:03.477Z,94.90
2018-04-23T18:33:30.880Z,95.40
2018-04-23T18:35:59.099Z,96.50
2018-04-23T18:38:26.508Z,96.50
2018-04-23T18:40:53.918Z,97.60
2018-04-23T18:43:21.336Z,98.40
2018-04-23T18:45:48.755Z,99.70
2018-04-23T18:48:16.163Z,99.90
2018-04-23T18:50:43.597Z,99.90
2018-04-23T18:53:11.890Z,99.90
2018-04-23T18:55:39.377Z,99.90
2018-04-23T18:58:07.519Z,99.90
2018-04-23T19:00:35.025Z,99.90
2018-04-23T19:03:02.444Z,99.90
2018-04-23T19:05:29.967Z,99.90
2018-04-23T19:07:57.417Z,99.90
2018-04-23T19:10:24.829Z,99.90
2018-04-23T19:12:52.248Z,99.90
2018-04-23T19:15:19.670Z,99.90
2018-04-23T19:17:47.094Z,99.90
2018-04-23T19:20:14.545Z,99.90
2018-04-23T19:22:42.046Z,99.90
2018-04-23T19:25:09.505Z,99.90
2018-04-23T19:27:36.895Z,99.90
2018-04-23T19:30:04.334Z,99.90
2018-04-23T19:32:31.768Z,99.90
2018-04-23T19:34:59.265Z,99.90
2018-04-23T19:37:27.753Z,99.90
2018-04-23T19:39:55.920Z,99.90
2018-04-23T19:42:23.342Z,99.90
2018-04-23T19:44:50.748Z,99.90
2018-04-23T19:47:18.153Z,99.90
2018-04-23T19:49:45.564Z,99.90
2018-04-23T19:52:12.977Z,99.90
2018-04-23T19:54:41.153Z,99.90
2018-04-23T19:57:09.343Z,99.90
2018-04-23T19:59:37.509Z,99.90
2018-04-23T20:02:04.937Z,99.90
2018-04-23T20:04:32.422Z,99.90
2018-04-23T20:06:59.810Z,99.90
2018-04-23T20:09:28.204Z,99.90
2018-04-23T20:11:55.612Z,99.90
2018-04-23T20:14:23.076Z,99.90
2018-04-23T20:16:50.520Z,99.90
2018-04-23T20:19:18.031Z,99.90
2018-04-23T20:21:45.526Z,99.90
2018-04-23T20:24:12.992Z,99.90
2018-04-23T20:26:40.500Z,99.90
2018-04-23T20:29:07.968Z,99.90
2018-04-23T20:31:35.466Z,99.90
2018-04-23T20:34:02.959Z,99.90
2018-04-23T20:36:30.410Z,99.90
2018-04-23T20:38:57.992Z,99.90
2018-04-23T20:41:25.489Z,99.90
2018-04-23T20:43:52.924Z,99.90
2018-04-23T20:46:21.224Z,99.90
2018-04-23T20:48:48.629Z,99.90
2018-04-23T20:51:16.145Z,99.90
2018-04-23T20:53:43.577Z,99.90
2018-04-23T20:56:10.973Z,99.90
2018-04-23T20:58:38.389Z,99.90
2018-04-23T21:01:05.927Z,99.90
2018-04-23T21:03:34.123Z,99.90
2018-04-23T21:06:01.581Z,99.90
2018-04-23T21:08:28.989Z,99.90
2018-04-23T21:10:56.395Z,99.90
2018-04-23T21:13:24.568Z,99.90
2018-04-23T21:15:52.742Z,99.90
2018-04-23T21:18:20.172Z,99.90
2018-04-23T21:20:47.585Z,99.90
2018-04-23T21:23:14.997Z,99.90
2018-04-23T21:25:42.414Z,99.90
2018-04-23T21:28:09.885Z,99.90
2018-04-23T21:30:37.401Z,99.90
2018-04-23T21:33:05.693Z,99.90
2018-04-23T21:35:33.115Z,99.90
2018-04-23T21:38:00.521Z,99.90
2018-04-23T21:40:28.876Z,99.90
2018-04-23T21:42:57.051Z,99.90
2018-04-23T21:45:24.468Z,99.90
2018-04-23T21:47:51.939Z,99.90
2018-04-23T21:50:19.340Z,99.90
2018-04-23T21:52:46.762Z,99.90
2018-04-23T21:55:14.193Z,99.90
2018-04-23T21:57:41.596Z,99.90
2018-04-23T22:00:09.007Z,99.90
2018-04-23T22:02:36.477Z,99.90
2018-04-23T22:05:04.587Z,99.90
2018-04-23T22:07:32.012Z,99.90
2018-04-23T22:09:59.417Z,99.90
2018-04-23T22:12:26.843Z,99.90
2018-04-23T22:14:54.301Z,99.90
2018-04-23T22:17:22.477Z,99.90
2018-04-23T22:19:50.645Z,99.90
2018-04-23T22:22:18.823Z,99.90
2018-04-23T22:24:46.996Z,99.90
2018-04-23T22:27:14.416Z,99.90
2018-04-23T22:29:41.886Z,99.90
2018-04-23T22:32:09.364Z,99.90
2018-04-23T22:34:36.815Z,99.90
2018-04-23T22:37:04.243Z,99.90
2018-04-23T22:39:31.640Z,99.90
2018-04-23T22:42:00.636Z,99.90
2018-04-23T22:44:29.789Z,99.90
2018-04-23T22:46:57.233Z,99.90
2018-04-23T22:49:24.751Z,99.90
2018-04-23T22:51:52.175Z,99.90
2018-04-23T22:54:19.603Z,99.90
2018-04-23T22:56:47.012Z,99.90
2018-04-23T22:59:14.428Z,99.90
2018-04-23T23:01:41.833Z,99.90
2018-04-23T23:04:09.254Z,99.90
2018-04-23T23:06:36.677Z,99.90
2018-04-23T23:09:05.686Z,99.90
2018-04-23T23:11:33.088Z,99.90
2018-04-23T23:14:00.516Z,99.90
2018-04-23T23:16:27.916Z,99.90
2018-04-23T23:18:55.356Z,99.90
2018-04-23T23:21:23.528Z,99.90
2018-04-23T23:23:50.957Z,99.90
2018-04-23T23:26:18.369Z,99.90
2018-04-23T23:28:45.772Z,99.90
2018-04-23T23:31:13.228Z,99.90
2018-04-23T23:33:40.686Z,99.90
2018-04-23T23:36:08.083Z,99.90
2018-04-23T23:38:35.500Z,99.90
2018-04-23T23:41:03.699Z,99.90
2018-04-23T23:43:31.176Z,99.90
2018-04-23T23:45:58.589Z,99.90
2018-04-23T23:48:26.012Z,99.90
2018-04-23T23:50:53.421Z,99.90
2018-04-23T23:53:20.858Z,99.90
2018-04-23T23:55:48.273Z,99.90
2018-04-23T23:58:15.688Z,99.90
